Time;durP1;ratioP1;P1;durP2;ratioP2;P2;SDS_P1;SDS_P2;PMS_P1;PMS_P2;Temp;Humidity;BMP_temperature;BMP_pressure;BME280_temperature;BME280_humidity;BME280_pressure;Samples;Min_cycle;Max_cycle;Signal;HPM_P1;HPM_P2
2023/10/18 00:01:20;;;;;;;;;10.33;10.33;;;;;;;;5073703;28;44838;-75
2023/10/18 00:03:45;;;;;;;;;11.00;11.00;;;;;;;;5073385;28;45244;-74
2023/10/18 00:06:22;;;;;;;;;10.33;10.33;;;;;;;;5071988;28;47128;-74
2023/10/18 00:08:47;;;;;;;;;12.33;10.33;;;;;;;;5073031;28;45554;-75
2023/10/18 00:11:13;;;;;;;;;11.00;10.67;;;;;;;;5073186;28;45639;-74
2023/10/18 00:13:38;;;;;;;;;10.67;10.67;;;;;;;;5071504;28;45212;-74
2023/10/18 00:16:05;;;;;;;;;11.33;9.00;;;;;;;;5071952;28;45491;-74
2023/10/18 00:18:30;;;;;;;;;11.00;11.00;;;;;;;;5071459;28;45232;-74
2023/10/18 00:20:59;;;;;;;;;9.67;9.67;;;;;;;;5075304;28;44657;-74
2023/10/18 00:23:25;;;;;;;;;10.00;10.00;;;;;;;;5083920;28;47386;-75
2023/10/18 00:25:50;;;;;;;;;10.00;9.67;;;;;;;;5090748;28;45425;-75
2023/10/18 00:28:15;;;;;;;;;9.67;9.67;;;;;;;;5078459;28;45250;-74
2023/10/18 00:30:40;;;;;;;;;10.00;10.00;;;;;;;;5084444;27;44809;-75
2023/10/18 00:33:06;;;;;;;;;9.33;9.33;;;;;;;;5093043;27;45115;-76
2023/10/18 00:35:32;;;;;;;;;9.00;9.00;;;;;;;;5091710;28;46229;-76
2023/10/18 00:37:57;;;;;;;;;9.67;9.00;;;;;;;;5095303;27;45238;-74
2023/10/18 00:40:35;;;;;;;;;8.33;8.33;;;;;;;;5094094;28;45133;-74
2023/10/18 00:43:07;;;;;;;;;8.67;8.67;;;;;;;;5094050;28;44676;-74
2023/10/18 00:45:36;;;;;;;;;9.67;9.67;;;;;;;;5092186;28;47433;-75
2023/10/18 00:48:06;;;;;;;;;10.00;10.00;;;;;;;;5093917;28;44709;-74
2023/10/18 00:50:31;;;;;;;;;8.67;8.33;;;;;;;;5092520;28;45274;-74
2023/10/18 00:52:56;;;;;;;;;8.67;8.33;;;;;;;;5092704;28;46026;-74
2023/10/18 00:55:22;;;;;;;;;9.33;9.33;;;;;;;;5092836;28;45339;-74
2023/10/18 00:57:47;;;;;;;;;10.00;10.00;;;;;;;;5094043;28;45198;-74
2023/10/18 01:00:19;;;;;;;;;10.67;10.33;;;;;;;;5092412;28;45208;-75
2023/10/18 01:02:45;;;;;;;;;8.67;8.67;;;;;;;;5093418;28;46315;-74
2023/10/18 01:05:15;;;;;;;;;12.00;11.67;;;;;;;;5090299;28;45922;-75
2023/10/18 01:07:40;;;;;;;;;8.33;8.33;;;;;;;;5092299;28;45320;-75
2023/10/18 01:10:07;;;;;;;;;8.33;8.33;;;;;;;;5086447;28;45295;-75
2023/10/18 01:12:34;;;;;;;;;12.00;12.00;;;;;;;;5088017;28;46309;-74
2023/10/18 01:14:59;;;;;;;;;10.00;10.00;;;;;;;;5088383;28;47470;-77
2023/10/18 01:17:25;;;;;;;;;11.67;10.67;;;;;;;;5086700;28;45684;-75
2023/10/18 01:19:50;;;;;;;;;13.00;11.00;;;;;;;;5086876;28;45342;-75
2023/10/18 01:22:17;;;;;;;;;9.00;9.00;;;;;;;;5087314;28;47316;-75
2023/10/18 01:24:42;;;;;;;;;12.67;11.00;;;;;;;;5085478;28;45271;-76
2023/10/18 01:27:08;;;;;;;;;12.00;12.00;;;;;;;;5087330;28;45271;-75
2023/10/18 01:29:33;;;;;;;;;9.33;9.33;;;;;;;;5103143;27;45211;-75
2023/10/18 01:31:59;;;;;;;;;11.00;9.33;;;;;;;;5110296;27;45371;-75
2023/10/18 01:34:25;;;;;;;;;11.00;9.67;;;;;;;;5115645;27;45360;-75
2023/10/18 01:36:52;;;;;;;;;9.00;8.00;;;;;;;;5116659;27;45161;-74
2023/10/18 01:39:20;;;;;;;;;8.00;8.00;;;;;;;;5111870;27;45433;-75
2023/10/18 01:41:49;;;;;;;;;11.00;11.00;;;;;;;;5113012;27;45310;-75
2023/10/18 01:44:27;;;;;;;;;9.00;8.00;;;;;;;;5112985;27;45305;-74
2023/10/18 01:46:52;;;;;;;;;10.33;10.00;;;;;;;;5111777;27;45316;-76
2023/10/18 01:49:19;;;;;;;;;10.33;10.00;;;;;;;;5110932;27;45294;-75
2023/10/18 01:51:46;;;;;;;;;11.00;11.00;;;;;;;;5114390;27;45487;-74
2023/10/18 01:54:15;;;;;;;;;8.67;8.00;;;;;;;;5113964;27;45272;-75
2023/10/18 01:56:46;;;;;;;;;10.00;10.00;;;;;;;;5114211;27;45276;-75
2023/10/18 01:59:17;;;;;;;;;10.00;10.00;;;;;;;;5115667;27;44762;-75
2023/10/18 02:01:45;;;;;;;;;13.00;12.00;;;;;;;;5109807;27;46117;-74
2023/10/18 02:04:23;;;;;;;;;11.00;11.00;;;;;;;;5113034;27;48208;-74
2023/10/18 02:06:50;;;;;;;;;11.00;11.00;;;;;;;;5114382;27;45816;-74
2023/10/18 02:09:15;;;;;;;;;12.00;9.67;;;;;;;;5116551;27;45417;-73
2023/10/18 02:11:40;;;;;;;;;10.00;10.00;;;;;;;;5116322;27;47231;-75
2023/10/18 02:14:06;;;;;;;;;9.67;9.67;;;;;;;;5115503;27;46251;-74
2023/10/18 02:16:31;;;;;;;;;11.33;10.67;;;;;;;;5110394;27;45295;-74
2023/10/18 02:18:57;;;;;;;;;10.33;9.00;;;;;;;;5075332;28;45381;-75
2023/10/18 02:21:23;;;;;;;;;11.00;10.33;;;;;;;;5072268;28;45474;-74
2023/10/18 02:23:50;;;;;;;;;11.00;11.00;;;;;;;;5072729;28;45935;-74
2023/10/18 02:26:31;;;;;;;;;11.67;11.67;;;;;;;;5074900;28;45165;-74
2023/10/18 02:28:59;;;;;;;;;11.33;10.67;;;;;;;;5075131;28;45332;-75
2023/10/18 02:31:24;;;;;;;;;12.00;11.00;;;;;;;;5071413;28;46230;-75
2023/10/18 02:33:49;;;;;;;;;12.33;10.33;;;;;;;;5072594;28;46285;-75
2023/10/18 02:36:21;;;;;;;;;12.00;10.00;;;;;;;;5072190;28;45430;-74
2023/10/18 02:38:49;;;;;;;;;12.33;11.00;;;;;;;;5072270;28;45383;-74
2023/10/18 02:43:45;;;;;;;;;11.33;11.33;;;;;;;;5071640;28;45198;-75
2023/10/18 02:46:11;;;;;;;;;12.67;12.00;;;;;;;;5070228;28;45425;-75
2023/10/18 02:48:37;;;;;;;;;11.67;9.67;;;;;;;;5070661;28;45312;-74
2023/10/18 02:51:02;;;;;;;;;11.00;10.00;;;;;;;;5068722;28;45410;-74
2023/10/18 02:53:27;;;;;;;;;9.67;9.67;;;;;;;;5071749;28;46113;-74
2023/10/18 02:55:56;;;;;;;;;12.00;11.67;;;;;;;;5071024;28;45336;-76
2023/10/18 02:58:22;;;;;;;;;11.00;10.33;;;;;;;;5068650;28;45161;-75
2023/10/18 03:00:49;;;;;;;;;12.00;10.00;;;;;;;;5067523;28;45247;-75
2023/10/18 03:03:15;;;;;;;;;12.00;10.00;;;;;;;;5068357;28;45302;-75
2023/10/18 03:05:40;;;;;;;;;10.33;10.33;;;;;;;;5066587;28;45360;-74
2023/10/18 03:08:08;;;;;;;;;11.67;11.67;;;;;;;;5066770;28;45292;-74
2023/10/18 03:10:43;;;;;;;;;12.00;12.00;;;;;;;;5067502;28;45283;-74
2023/10/18 03:13:11;;;;;;;;;11.67;10.00;;;;;;;;5068505;28;46700;-75
2023/10/18 03:15:49;;;;;;;;;12.00;11.00;;;;;;;;5070351;28;45222;-77
2023/10/18 03:18:16;;;;;;;;;10.00;10.00;;;;;;;;5071603;28;45272;-77
2023/10/18 03:20:41;;;;;;;;;12.00;10.67;;;;;;;;5064873;28;47311;-77
2023/10/18 03:23:07;;;;;;;;;10.67;10.67;;;;;;;;5071083;28;45141;-76
2023/10/18 03:25:34;;;;;;;;;11.00;11.00;;;;;;;;5071370;28;44695;-77
2023/10/18 03:28:04;;;;;;;;;12.67;11.33;;;;;;;;5073597;28;45217;-77
2023/10/18 03:30:44;;;;;;;;;13.33;12.33;;;;;;;;5113653;27;46177;-77
2023/10/18 03:33:12;;;;;;;;;10.00;10.00;;;;;;;;5116615;27;45168;-77
2023/10/18 03:35:40;;;;;;;;;11.00;10.33;;;;;;;;5117503;27;45248;-76
2023/10/18 03:38:20;;;;;;;;;16.00;13.67;;;;;;;;5112236;27;45319;-76
2023/10/18 03:40:56;;;;;;;;;12.00;12.00;;;;;;;;5119205;27;44895;-77
2023/10/18 03:43:26;;;;;;;;;12.33;11.33;;;;;;;;5114455;27;47118;-76
2023/10/18 03:46:38;;;;;;;;;12.67;11.67;;;;;;;;5116818;27;45327;-77
2023/10/18 03:48:40;;;;;;;;;12.00;10.67;;;;;;;;5110386;27;45243;-77
2023/10/18 03:51:05;;;;;;;;;11.67;10.67;;;;;;;;5119148;27;45277;-76
2023/10/18 03:53:31;;;;;;;;;9.00;8.67;;;;;;;;5117203;27;45006;-76
2023/10/18 03:55:56;;;;;;;;;10.00;10.00;;;;;;;;5117850;27;44711;-76
2023/10/18 03:58:25;;;;;;;;;11.67;11.67;;;;;;;;5107026;27;44698;-77
2023/10/18 04:00:54;;;;;;;;;10.00;10.00;;;;;;;;5090357;27;45717;-77
2023/10/18 04:03:20;;;;;;;;;12.00;12.00;;;;;;;;5095024;27;45502;-77
2023/10/18 04:05:45;;;;;;;;;9.00;9.00;;;;;;;;5092925;28;44793;-77
2023/10/18 04:08:15;;;;;;;;;10.00;10.00;;;;;;;;5097435;28;44598;-76
2023/10/18 04:10:40;;;;;;;;;9.00;7.00;;;;;;;;5099410;28;45958;-76
2023/10/18 04:13:11;;;;;;;;;9.00;9.00;;;;;;;;5101832;27;45296;-76
2023/10/18 04:15:37;;;;;;;;;11.67;11.00;;;;;;;;5103297;27;44596;-77
2023/10/18 04:20:34;;;;;;;;;9.33;8.67;;;;;;;;5100915;27;44703;-77
2023/10/18 04:23:00;;;;;;;;;11.33;10.67;;;;;;;;5099354;27;46444;-77
2023/10/18 04:25:29;;;;;;;;;11.67;11.00;;;;;;;;5096875;28;45697;-76
2023/10/18 04:27:57;;;;;;;;;11.33;10.00;;;;;;;;5097382;27;45330;-77
2023/10/18 04:30:23;;;;;;;;;10.33;10.33;;;;;;;;5091801;27;45331;-76
2023/10/18 04:35:36;;;;;;;;;13.33;12.00;;;;;;;;5072532;28;45433;-76
2023/10/18 04:38:07;;;;;;;;;9.67;9.33;;;;;;;;5097624;28;44573;-77
2023/10/18 04:40:34;;;;;;;;;10.67;10.00;;;;;;;;5094590;28;45759;-77
2023/10/18 04:43:00;;;;;;;;;9.67;9.67;;;;;;;;5092360;27;45931;-77
2023/10/18 04:45:26;;;;;;;;;12.00;12.00;;;;;;;;5089575;28;45071;-77
2023/10/18 04:47:59;;;;;;;;;12.00;11.67;;;;;;;;5100340;28;44726;-76
2023/10/18 04:50:32;;;;;;;;;12.00;9.67;;;;;;;;5097365;28;45093;-77
2023/10/18 04:52:58;;;;;;;;;13.67;11.67;;;;;;;;5099519;28;45982;-76
2023/10/18 04:55:25;;;;;;;;;15.67;13.00;;;;;;;;5097831;28;44932;-77
2023/10/18 04:57:52;;;;;;;;;12.00;11.67;;;;;;;;5098377;28;45198;-77
2023/10/18 05:00:50;;;;;;;;;11.00;10.33;;;;;;;;5097488;28;45021;-77
2023/10/18 05:03:17;;;;;;;;;11.00;9.67;;;;;;;;5099120;28;45270;-76
2023/10/18 05:05:45;;;;;;;;;13.33;12.67;;;;;;;;5102477;28;44777;-76
2023/10/18 05:08:14;;;;;;;;;11.33;11.33;;;;;;;;5090154;28;45214;-78
2023/10/18 05:10:40;;;;;;;;;8.00;8.00;;;;;;;;5082397;28;45269;-78
2023/10/18 05:15:51;;;;;;;;;11.00;11.00;;;;;;;;5082692;28;45357;-77
2023/10/18 05:18:17;;;;;;;;;12.00;11.33;;;;;;;;5088216;28;45306;-77
2023/10/18 05:20:46;;;;;;;;;10.67;10.33;;;;;;;;5083990;28;45571;-77
2023/10/18 05:23:21;;;;;;;;;11.67;11.00;;;;;;;;5085253;28;46471;-77
2023/10/18 05:25:47;;;;;;;;;12.00;12.00;;;;;;;;5084138;28;46011;-76
2023/10/18 05:28:15;;;;;;;;;10.00;10.00;;;;;;;;5081618;28;45292;-76
2023/10/18 05:43:58;;;;;;;;;12.67;12.67;;;;;;;;5104603;27;45285;-76
2023/10/18 05:46:33;;;;;;;;;14.00;13.33;;;;;;;;5107520;27;45377;-78
2023/10/18 05:49:00;;;;;;;;;13.67;11.67;;;;;;;;5070139;27;45439;-77
2023/10/18 05:51:26;;;;;;;;;15.67;14.00;;;;;;;;5074403;28;45267;-77
2023/10/18 05:54:00;;;;;;;;;10.00;8.67;;;;;;;;5072851;28;46062;-77
2023/10/18 05:56:32;;;;;;;;;13.00;12.00;;;;;;;;5081495;28;45207;-77
2023/10/18 05:59:27;;;;;;;;;11.00;8.33;;;;;;;;5082467;28;45381;-78
2023/10/18 06:02:00;;;;;;;;;13.67;11.67;;;;;;;;5082303;28;45314;-77
2023/10/18 06:04:38;;;;;;;;;11.67;11.67;;;;;;;;5085067;28;48190;-80
2023/10/18 06:07:13;;;;;;;;;11.33;10.67;;;;;;;;5080364;28;45415;-76
2023/10/18 06:09:54;;;;;;;;;12.00;11.00;;;;;;;;5086232;28;45315;-76
2023/10/18 06:12:23;;;;;;;;;11.67;11.67;;;;;;;;5088574;28;45929;-78
2023/10/18 06:14:52;;;;;;;;;9.00;9.00;;;;;;;;5084450;28;45528;-77
2023/10/18 06:17:22;;;;;;;;;13.67;12.67;;;;;;;;5082833;28;45235;-79
2023/10/18 06:19:50;;;;;;;;;10.67;10.67;;;;;;;;5083594;28;45419;-79
2023/10/18 06:22:39;;;;;;;;;11.67;11.67;;;;;;;;5081676;28;46202;-79
2023/10/18 06:25:06;;;;;;;;;12.00;12.00;;;;;;;;5060028;28;46543;-79
2023/10/18 06:27:38;;;;;;;;;14.33;13.33;;;;;;;;5081145;28;45397;-78
2023/10/18 06:30:05;;;;;;;;;12.00;12.00;;;;;;;;5076821;27;45573;-79
2023/10/18 06:32:30;;;;;;;;;10.33;10.33;;;;;;;;5062457;28;46237;-78
2023/10/18 06:34:58;;;;;;;;;13.33;12.33;;;;;;;;5062608;28;46283;-79
2023/10/18 06:37:24;;;;;;;;;12.00;11.67;;;;;;;;5060384;28;45348;-78
2023/10/18 06:39:51;;;;;;;;;13.33;13.33;;;;;;;;5061738;28;45266;-78
2023/10/18 06:42:17;;;;;;;;;10.67;10.67;;;;;;;;5061671;28;45319;-78
2023/10/18 06:44:43;;;;;;;;;11.33;11.33;;;;;;;;5060268;28;47172;-79
2023/10/18 06:47:13;;;;;;;;;11.00;11.00;;;;;;;;5061321;28;45276;-79
2023/10/18 06:49:38;;;;;;;;;14.00;12.33;;;;;;;;5061821;28;45272;-79
2023/10/18 06:52:04;;;;;;;;;11.67;11.67;;;;;;;;5061482;28;45341;-78
2023/10/18 06:54:38;;;;;;;;;11.33;10.33;;;;;;;;5084451;27;46166;-79
2023/10/18 06:57:49;;;;;;;;;13.00;13.00;;;;;;;;5102251;27;45349;-79
2023/10/18 06:59:50;;;;;;;;;12.00;11.33;;;;;;;;5061022;27;45510;-78
2023/10/18 07:02:15;;;;;;;;;13.33;11.33;;;;;;;;5061275;28;45317;-78
2023/10/18 07:04:50;;;;;;;;;20.67;20.67;;;;;;;;5060504;28;45431;-78
2023/10/18 07:07:20;;;;;;;;;11.67;11.67;;;;;;;;5060575;28;45277;-78
2023/10/18 07:09:45;;;;;;;;;12.00;12.00;;;;;;;;5075457;28;45469;-76
2023/10/18 07:12:11;;;;;;;;;11.00;11.00;;;;;;;;5060128;28;47071;-77
2023/10/18 07:14:40;;;;;;;;;13.33;13.00;;;;;;;;5064598;28;45419;-76
2023/10/18 07:17:05;;;;;;;;;11.33;10.67;;;;;;;;5070091;28;45744;-76
2023/10/18 07:19:33;;;;;;;;;13.00;11.33;;;;;;;;5072633;28;45355;-77
2023/10/18 07:21:59;;;;;;;;;9.33;9.33;;;;;;;;5068803;28;45930;-77
2023/10/18 07:24:32;;;;;;;;;12.00;11.00;;;;;;;;5071372;28;46020;-77
2023/10/18 07:26:59;;;;;;;;;13.67;13.33;;;;;;;;5071303;28;45933;-77
2023/10/18 07:29:27;;;;;;;;;11.00;11.00;;;;;;;;5073883;27;45316;-77
2023/10/18 07:31:53;;;;;;;;;14.00;12.00;;;;;;;;5076670;28;45566;-77
2023/10/18 07:34:25;;;;;;;;;10.67;10.00;;;;;;;;5073082;28;45489;-76
2023/10/18 07:36:54;;;;;;;;;11.00;11.00;;;;;;;;5074621;28;44718;-76
2023/10/18 07:39:24;;;;;;;;;10.67;10.00;;;;;;;;5062982;28;45312;-76
2023/10/18 07:41:50;;;;;;;;;10.67;10.00;;;;;;;;5064655;28;45375;-77
2023/10/18 07:44:15;;;;;;;;;13.33;11.33;;;;;;;;5060529;28;46643;-76
2023/10/18 07:46:40;;;;;;;;;10.00;10.00;;;;;;;;5063038;28;45453;-77
2023/10/18 07:49:14;;;;;;;;;10.33;10.33;;;;;;;;5061526;28;45293;-77
2023/10/18 07:51:48;;;;;;;;;10.67;10.00;;;;;;;;5060654;28;45347;-77
2023/10/18 07:54:14;;;;;;;;;9.00;9.00;;;;;;;;5059043;28;47446;-77
2023/10/18 07:56:48;;;;;;;;;11.67;11.67;;;;;;;;5065215;28;45864;-77
2023/10/18 07:59:29;;;;;;;;;13.33;13.00;;;;;;;;5071499;28;45435;-76
2023/10/18 08:02:19;;;;;;;;;10.00;10.00;;;;;;;;5078884;28;46924;-77
2023/10/18 08:04:46;;;;;;;;;12.67;12.33;;;;;;;;5089452;28;45681;-77
2023/10/18 08:07:15;;;;;;;;;13.00;13.00;;;;;;;;5090918;28;45326;-75
2023/10/18 08:09:41;;;;;;;;;10.33;10.33;;;;;;;;5079239;27;45362;-76
2023/10/18 08:12:07;;;;;;;;;10.67;10.67;;;;;;;;5089131;28;45323;-76
2023/10/18 08:14:33;;;;;;;;;14.00;11.00;;;;;;;;5090952;27;45237;-76
2023/10/18 08:17:08;;;;;;;;;13.33;12.67;;;;;;;;5091806;28;45290;-77
2023/10/18 08:19:43;;;;;;;;;11.00;9.33;;;;;;;;5088457;27;45277;-77
2023/10/18 08:24:36;;;;;;;;;10.00;10.00;;;;;;;;5098146;27;45404;-75
2023/10/18 08:27:10;;;;;;;;;11.33;11.33;;;;;;;;5091852;27;45467;-76
2023/10/18 08:29:36;;;;;;;;;10.00;10.00;;;;;;;;5098364;27;45413;-76
2023/10/18 08:32:06;;;;;;;;;10.33;8.67;;;;;;;;5108684;27;45304;-77
2023/10/18 08:34:31;;;;;;;;;10.50;10.50;;;;;;;;5109342;27;46215;-76
2023/10/18 08:37:03;;;;;;;;;14.33;11.67;;;;;;;;5106505;27;45292;-75
2023/10/18 08:39:29;;;;;;;;;11.33;11.00;;;;;;;;5110167;27;45360;-75
2023/10/18 08:42:08;;;;;;;;;12.00;10.33;;;;;;;;5069808;27;45617;-76
2023/10/18 08:44:35;;;;;;;;;10.33;10.00;;;;;;;;5068022;27;45374;-77
2023/10/18 08:47:11;;;;;;;;;9.67;9.00;;;;;;;;5066856;28;45472;-76
2023/10/18 08:49:54;;;;;;;;;8.67;8.00;;;;;;;;5074469;28;45379;-77
2023/10/18 08:52:28;;;;;;;;;8.00;7.33;;;;;;;;5077484;28;45457;-77
2023/10/18 08:54:55;;;;;;;;;11.00;10.00;;;;;;;;5075477;28;46123;-76
2023/10/18 08:57:34;;;;;;;;;9.67;9.67;;;;;;;;5078137;28;45533;-76
2023/10/18 09:00:19;;;;;;;;;6.00;6.00;;;;;;;;5071369;27;45464;-77
2023/10/18 09:02:45;;;;;;;;;7.67;7.67;;;;;;;;5078356;28;47373;-77
2023/10/18 09:05:11;;;;;;;;;7.00;6.00;;;;;;;;5072592;27;46198;-76
2023/10/18 09:07:42;;;;;;;;;9.00;9.00;;;;;;;;5079705;27;45325;-76
2023/10/18 09:10:13;;;;;;;;;6.00;6.00;;;;;;;;5077478;27;45487;-79
2023/10/18 09:15:27;;;;;;;;;9.33;7.00;;;;;;;;5087113;27;45950;-77
2023/10/18 09:17:56;;;;;;;;;6.67;6.67;;;;;;;;5077747;27;45528;-77
2023/10/18 09:20:27;;;;;;;;;7.33;6.67;;;;;;;;5069122;27;45286;-77
2023/10/18 09:22:53;;;;;;;;;9.00;9.00;;;;;;;;5071007;28;45417;-76
2023/10/18 09:25:24;;;;;;;;;6.33;6.00;;;;;;;;5064805;27;45392;-76
2023/10/18 09:27:50;;;;;;;;;7.00;7.00;;;;;;;;5063007;28;45802;-77
2023/10/18 09:30:18;;;;;;;;;7.67;7.00;;;;;;;;5068695;27;45363;-76
2023/10/18 09:32:45;;;;;;;;;9.00;8.00;;;;;;;;5068318;28;47241;-76
2023/10/18 09:35:11;;;;;;;;;6.33;6.33;;;;;;;;5067175;27;46322;-76
2023/10/18 09:37:36;;;;;;;;;9.00;8.00;;;;;;;;5072067;27;45270;-77
2023/10/18 09:40:05;;;;;;;;;9.00;6.00;;;;;;;;5085010;27;45408;-77
2023/10/18 09:42:30;;;;;;;;;6.33;6.33;;;;;;;;5096757;28;45126;-76
2023/10/18 09:44:55;;;;;;;;;7.33;7.00;;;;;;;;5085228;27;46106;-75
2023/10/18 09:47:25;;;;;;;;;5.67;5.67;;;;;;;;5071181;28;45563;-76
2023/10/18 09:49:50;;;;;;;;;5.00;4.00;;;;;;;;5078527;27;45279;-76
2023/10/18 09:52:16;;;;;;;;;9.00;9.00;;;;;;;;5093572;27;46837;-78
2023/10/18 09:54:51;;;;;;;;;7.67;7.33;;;;;;;;5098794;27;46372;-76
2023/10/18 09:57:23;;;;;;;;;7.00;7.00;;;;;;;;5080152;28;45308;-78
2023/10/18 09:59:49;;;;;;;;;7.00;6.67;;;;;;;;5074695;27;45812;-79
2023/10/18 10:02:16;;;;;;;;;6.67;6.67;;;;;;;;5081507;28;45668;-76
2023/10/18 10:04:43;;;;;;;;;8.00;6.33;;;;;;;;5082070;28;45271;-78
2023/10/18 10:09:59;;;;;;;;;6.33;6.00;;;;;;;;5063273;28;45398;-77
2023/10/18 10:12:27;;;;;;;;;6.67;6.67;;;;;;;;5061310;28;45279;-76
2023/10/18 10:14:52;;;;;;;;;7.00;7.00;;;;;;;;5061406;28;45920;-75
2023/10/18 10:17:18;;;;;;;;;7.33;7.33;;;;;;;;5061277;28;45269;-76
2023/10/18 10:19:54;;;;;;;;;6.00;6.00;;;;;;;;5060177;28;45449;-76
2023/10/18 10:22:24;;;;;;;;;6.33;6.33;;;;;;;;5063992;28;45529;-77
2023/10/18 10:24:59;;;;;;;;;7.00;7.00;;;;;;;;5080098;28;47547;-76
2023/10/18 10:27:27;;;;;;;;;6.00;6.00;;;;;;;;5081862;28;45370;-76
2023/10/18 10:30:31;;;;;;;;;7.00;6.00;;;;;;;;5094678;27;45656;-76
2023/10/18 10:33:00;;;;;;;;;8.00;7.00;;;;;;;;5102561;27;45216;-76
2023/10/18 10:35:29;;;;;;;;;6.00;6.00;;;;;;;;5101117;27;47142;-77
2023/10/18 10:37:55;;;;;;;;;8.33;7.33;;;;;;;;5101188;27;45344;-76
2023/10/18 10:43:01;;;;;;;;;6.67;6.67;;;;;;;;5061962;28;45224;-76
2023/10/18 10:45:35;;;;;;;;;8.33;8.33;;;;;;;;5080750;28;46204;-76
2023/10/18 10:48:37;;;;;;;;;5.00;5.00;;;;;;;;5071507;28;45310;-77
2023/10/18 10:51:12;;;;;;;;;6.00;6.00;;;;;;;;5063554;28;45450;-76
2023/10/18 10:53:44;;;;;;;;;8.00;6.00;;;;;;;;5065977;28;45587;-77
2023/10/18 10:56:18;;;;;;;;;5.00;5.00;;;;;;;;5073948;28;47131;-77
2023/10/18 10:59:09;;;;;;;;;5.00;5.00;;;;;;;;5072137;28;45457;-76
2023/10/18 11:01:43;;;;;;;;;5.00;5.00;;;;;;;;5073322;28;45707;-76
2023/10/18 11:04:24;;;;;;;;;7.33;7.33;;;;;;;;5071219;28;46296;-76
2023/10/18 11:06:51;;;;;;;;;7.67;7.00;;;;;;;;5072886;28;46021;-76
2023/10/18 11:09:16;;;;;;;;;7.67;6.33;;;;;;;;5070644;28;45172;-76
2023/10/18 11:11:43;;;;;;;;;6.00;5.33;;;;;;;;5071373;28;45330;-76
2023/10/18 11:14:08;;;;;;;;;5.67;5.00;;;;;;;;5071566;28;46511;-76
2023/10/18 11:16:34;;;;;;;;;6.33;6.33;;;;;;;;5072172;28;45345;-77
2023/10/18 11:19:01;;;;;;;;;6.00;6.00;;;;;;;;5074637;28;45544;-76
2023/10/18 11:21:30;;;;;;;;;8.00;7.00;;;;;;;;5070864;28;45457;-77
2023/10/18 11:24:04;;;;;;;;;6.67;6.67;;;;;;;;5066463;28;47178;-77
2023/10/18 11:26:33;;;;;;;;;8.00;8.00;;;;;;;;5068631;28;45521;-77
2023/10/18 11:29:05;;;;;;;;;5.00;4.00;;;;;;;;5066323;27;45382;-77
2023/10/18 11:31:30;;;;;;;;;7.00;6.00;;;;;;;;5066030;28;45323;-77
2023/10/18 11:34:04;;;;;;;;;9.00;7.00;;;;;;;;5070361;28;46112;-77
2023/10/18 11:36:32;;;;;;;;;6.00;6.00;;;;;;;;5073276;28;48444;-76
2023/10/18 11:39:07;;;;;;;;;7.00;7.00;;;;;;;;5068662;28;45317;-76
2023/10/18 11:41:36;;;;;;;;;5.33;5.33;;;;;;;;5075392;28;45481;-76
2023/10/18 11:44:08;;;;;;;;;7.33;7.33;;;;;;;;5058395;28;46048;-76
2023/10/18 11:46:46;;;;;;;;;8.33;7.00;;;;;;;;5061889;28;46051;-76
2023/10/18 11:49:12;;;;;;;;;9.00;9.00;;;;;;;;5065185;28;45538;-76
2023/10/18 11:51:44;;;;;;;;;8.67;8.67;;;;;;;;5059586;28;45413;-77
2023/10/18 11:54:12;;;;;;;;;9.33;9.33;;;;;;;;5062866;28;45637;-77
2023/10/18 11:56:37;;;;;;;;;4.67;4.67;;;;;;;;5057884;28;47734;-76
2023/10/18 11:59:02;;;;;;;;;10.00;8.00;;;;;;;;5073951;28;45684;-76
2023/10/18 12:01:33;;;;;;;;;8.00;7.00;;;;;;;;5071341;28;45994;-76
2023/10/18 12:03:58;;;;;;;;;7.67;7.67;;;;;;;;5078968;27;45398;-76
2023/10/18 12:06:24;;;;;;;;;7.67;7.33;;;;;;;;5080521;28;45334;-78
2023/10/18 12:09:25;;;;;;;;;8.00;8.00;;;;;;;;5067033;27;45633;-79
2023/10/18 12:11:41;;;;;;;;;7.00;6.33;;;;;;;;5059178;28;45165;-78
2023/10/18 12:14:08;;;;;;;;;7.00;7.00;;;;;;;;5074928;27;47296;-78
2023/10/18 12:16:33;;;;;;;;;8.67;8.33;;;;;;;;5066563;28;47452;-78
2023/10/18 12:18:58;;;;;;;;;7.33;7.33;;;;;;;;5072381;27;45645;-78
2023/10/18 12:21:29;;;;;;;;;8.00;8.00;;;;;;;;5077068;28;45596;-78
2023/10/18 12:23:55;;;;;;;;;5.67;5.67;;;;;;;;5078299;27;46368;-79
2023/10/18 12:26:24;;;;;;;;;8.67;8.00;;;;;;;;5078111;28;45362;-79
2023/10/18 12:28:51;;;;;;;;;4.67;4.67;;;;;;;;5084412;27;45690;-79
2023/10/18 12:31:26;;;;;;;;;9.00;8.67;;;;;;;;5099062;27;45508;-79
2023/10/18 12:33:51;;;;;;;;;8.67;8.67;;;;;;;;5084472;27;45568;-79
2023/10/18 12:36:22;;;;;;;;;9.00;9.00;;;;;;;;5078292;28;45482;-78
2023/10/18 12:38:48;;;;;;;;;10.00;9.00;;;;;;;;5076734;27;45395;-79
2023/10/18 12:41:27;;;;;;;;;9.67;9.67;;;;;;;;5075434;28;46135;-79
2023/10/18 12:43:52;;;;;;;;;8.33;8.00;;;;;;;;5078906;27;45392;-79
2023/10/18 12:46:19;;;;;;;;;11.33;9.33;;;;;;;;5078760;28;46072;-79
2023/10/18 12:48:49;;;;;;;;;8.33;7.33;;;;;;;;5078506;27;45854;-80
2023/10/18 12:51:17;;;;;;;;;10.33;9.00;;;;;;;;5072764;28;45342;-79
2023/10/18 12:53:47;;;;;;;;;11.67;8.67;;;;;;;;5071039;27;45438;-79
2023/10/18 13:04:06;;;;;;;;;8.00;8.00;;;;;;;;5079582;28;45657;-79
2023/10/18 13:06:35;;;;;;;;;7.00;7.00;;;;;;;;5079403;27;45383;-79
2023/10/18 13:09:19;;;;;;;;;6.67;6.67;;;;;;;;5079364;28;45377;-77
2023/10/18 13:11:46;;;;;;;;;9.33;8.33;;;;;;;;5078337;28;45403;-80
2023/10/18 13:14:31;;;;;;;;;9.67;9.67;;;;;;;;5079574;28;46505;-81
2023/10/18 13:17:00;;;;;;;;;12.00;9.00;;;;;;;;5078195;28;45680;-81
2023/10/18 13:19:27;;;;;;;;;8.33;8.00;;;;;;;;5081026;27;45497;-80
2023/10/18 13:21:52;;;;;;;;;8.00;8.00;;;;;;;;5065912;28;45472;-80
2023/10/18 13:24:19;;;;;;;;;7.33;7.33;;;;;;;;5075920;27;45249;-80
2023/10/18 13:26:44;;;;;;;;;8.00;8.00;;;;;;;;5075024;28;46001;-80
2023/10/18 13:30:00;;;;;;;;;9.33;7.33;;;;;;;;5091758;27;45425;-79
2023/10/18 13:31:58;;;;;;;;;6.00;4.67;;;;;;;;5075173;28;45329;-79
2023/10/18 13:34:24;;;;;;;;;9.67;9.67;;;;;;;;5088450;27;46946;-78
2023/10/18 13:36:50;;;;;;;;;9.00;8.67;;;;;;;;5088240;28;47239;-79
2023/10/18 13:39:20;;;;;;;;;7.00;7.00;;;;;;;;5086043;27;45237;-79
2023/10/18 13:41:46;;;;;;;;;6.67;6.67;;;;;;;;5084891;28;45373;-82
2023/10/18 13:44:19;;;;;;;;;9.33;8.33;;;;;;;;5079707;27;45484;-79
2023/10/18 13:46:47;;;;;;;;;8.00;8.00;;;;;;;;5065438;28;45232;-80
2023/10/18 13:49:12;;;;;;;;;9.33;8.33;;;;;;;;5084433;27;45312;-79
2023/10/18 13:51:38;;;;;;;;;8.00;8.00;;;;;;;;5072288;28;45260;-79
2023/10/18 13:54:04;;;;;;;;;11.00;7.67;;;;;;;;5080056;27;45453;-79
2023/10/18 13:56:30;;;;;;;;;6.67;6.67;;;;;;;;5108779;27;45301;-80
2023/10/18 13:58:55;;;;;;;;;8.00;6.00;;;;;;;;5092806;27;45404;-77
2023/10/18 14:01:23;;;;;;;;;7.00;7.00;;;;;;;;5067649;28;45391;-83
2023/10/18 14:03:51;;;;;;;;;7.00;7.00;;;;;;;;5076085;27;46177;-79
2023/10/18 14:06:16;;;;;;;;;7.33;6.67;;;;;;;;5079561;28;45995;-79
2023/10/18 14:08:44;;;;;;;;;9.33;8.67;;;;;;;;5087333;27;45315;-79
2023/10/18 14:11:13;;;;;;;;;8.33;7.00;;;;;;;;5085159;28;45173;-79
2023/10/18 14:13:38;;;;;;;;;7.33;7.33;;;;;;;;5090016;27;47378;-79
2023/10/18 14:16:04;;;;;;;;;8.33;8.33;;;;;;;;5095122;27;45578;-79
2023/10/18 14:18:31;;;;;;;;;6.00;5.67;;;;;;;;5082887;27;45498;-78
2023/10/18 14:21:04;;;;;;;;;7.00;7.00;;;;;;;;5081457;28;45732;-78
2023/10/18 14:23:31;;;;;;;;;7.00;7.00;;;;;;;;5080066;27;46051;-78
2023/10/18 14:25:56;;;;;;;;;9.00;9.00;;;;;;;;5084728;28;45405;-81
2023/10/18 14:28:21;;;;;;;;;7.00;6.00;;;;;;;;5084294;27;45299;-78
2023/10/18 14:30:46;;;;;;;;;7.00;7.00;;;;;;;;5104297;27;45520;-78
2023/10/18 14:33:12;;;;;;;;;7.33;7.00;;;;;;;;5107742;27;45544;-79
2023/10/18 14:35:37;;;;;;;;;6.67;6.33;;;;;;;;5087123;27;47052;-80
2023/10/18 14:38:06;;;;;;;;;5.00;5.00;;;;;;;;5077153;28;45272;-79
2023/10/18 14:40:34;;;;;;;;;8.00;7.00;;;;;;;;5077433;28;45207;-79
2023/10/18 14:43:00;;;;;;;;;6.00;6.00;;;;;;;;5083159;28;46477;-79
2023/10/18 14:45:32;;;;;;;;;8.00;8.00;;;;;;;;5080822;28;47288;-80
2023/10/18 14:47:57;;;;;;;;;5.00;4.25;;;;;;;;5071156;28;45359;-79
2023/10/18 14:50:22;;;;;;;;;3.00;3.00;;;;;;;;5078155;28;45456;-80
2023/10/18 14:52:47;;;;;;;;;6.67;6.67;;;;;;;;5077102;28;45268;-79
2023/10/18 14:55:12;;;;;;;;;6.67;6.33;;;;;;;;5076650;28;45467;-79
2023/10/18 14:57:40;;;;;;;;;6.00;6.00;;;;;;;;5074865;28;45313;-81
2023/10/18 15:00:10;;;;;;;;;6.00;6.00;;;;;;;;5074187;28;45383;-82
2023/10/18 15:02:36;;;;;;;;;5.00;5.00;;;;;;;;5072591;28;47001;-80
2023/10/18 15:05:01;;;;;;;;;6.67;6.67;;;;;;;;5067773;28;47120;-79
2023/10/18 15:07:28;;;;;;;;;7.67;7.67;;;;;;;;5070011;28;45489;-87
2023/10/18 15:09:54;;;;;;;;;8.00;8.00;;;;;;;;5070747;28;45477;-83
2023/10/18 15:12:21;;;;;;;;;6.67;6.00;;;;;;;;5069597;28;46394;-83
2023/10/18 15:14:46;;;;;;;;;7.67;6.33;;;;;;;;5062685;28;45685;-85
2023/10/18 15:17:12;;;;;;;;;7.00;7.00;;;;;;;;5078704;27;46020;-86
2023/10/18 15:19:37;;;;;;;;;8.67;8.67;;;;;;;;5082480;28;45289;-85
2023/10/18 15:22:02;;;;;;;;;9.00;7.33;;;;;;;;5082975;27;45252;-80
2023/10/18 15:24:28;;;;;;;;;7.33;6.33;;;;;;;;5082235;27;45567;-80